Time,TemperatureF,DewpointF,PressureIn,WindDirection,WindDirectionDegrees,WindSpeedMPH,WindSpeedGustMPH,Humidity,HourlyPrecipIn,Conditions,Clouds,dailyrainin,SolarRadiationWatts/m^2,SoftwareType,DateUTC
2013-04-08 00:00:00,52.7,52.7,29.87,WSW,252,9.0,34.0,100,0.13,,,0.00,0002,Weather View 32 v70,2013-04-08 07:00:00,
2013-04-08 00:09:00,52.5,52.5,29.87,WSW,252,14.0,34.0,100,0.11,,,0.00,0001,Weather View 32 v70,2013-04-08 07:09:00,
2013-04-08 00:15:00,52.6,52.6,29.87,West,274,6.0,34.0,100,0.10,,,0.00,0001,Weather View 32 v70,2013-04-08 07:15:00,
2013-04-08 00:20:00,52.4,52.4,29.87,NW,319,8.0,34.0,100,0.09,,,0.00,0001,Weather View 32 v70,2013-04-08 07:20:00,
2013-04-08 00:25:00,52.4,52.4,29.86,NNW,342,5.0,34.0,100,0.08,,,0.00,0002,Weather View 32 v70,2013-04-08 07:25:00,
2013-04-08 00:30:00,52.2,52.2,29.87,WNW,297,6.0,34.0,100,0.07,,,0.00,0002,Weather View 32 v70,2013-04-08 07:30:00,
2013-04-08 00:35:00,52.1,52.1,29.86,NW,319,6.0,34.0,100,0.05,,,0.00,0001,Weather View 32 v70,2013-04-08 07:35:00,
2013-04-08 00:45:00,50.9,50.9,29.86,NW,319,7.0,34.0,100,0.01,,,0.00,0001,Weather View 32 v70,2013-04-08 07:45:00,
2013-04-08 00:50:00,50.4,50.4,29.86,South,184,5.0,34.0,100,0.01,,,0.00,0001,Weather View 32 v70,2013-04-08 07:50:00,
2013-04-08 00:55:00,49.8,49.8,29.85,WSW,252,14.0,26.0,100,0.00,,,0.00,0001,Weather View 32 v70,2013-04-08 07:55:00,
2013-04-08 01:00:00,49.6,49.6,29.84,NNW,342,6.0,26.0,100,0.00,,,0.00,0001,Weather View 32 v70,2013-04-08 08:00:00,
2013-04-08 01:09:00,49.4,49.4,29.85,WNW,297,16.0,26.0,100,0.00,,,0.00,0002,Weather View 32 v70,2013-04-08 08:09:00,
2013-04-08 01:15:00,49.0,49.0,29.86,NW,319,17.0,26.0,100,0.00,,,0.00,0001,Weather View 32 v70,2013-04-08 08:15:00,
2013-04-08 01:20:00,49.0,49.0,29.85,West,274,8.0,26.0,100,0.00,,,0.00,0001,Weather View 32 v70,2013-04-08 08:20:00,
2013-04-08 01:25:00,49.0,49.0,29.84,WSW,252,7.0,24.0,100,0.00,,,0.00,0001,Weather View 32 v70,2013-04-08 08:25:00,
2013-04-08 01:35:00,48.8,48.8,29.83,NW,319,13.0,24.0,100,0.00,,,0.00,0001,Weather View 32 v70,2013-04-08 08:35:00,
2013-04-08 01:45:00,48.5,48.5,29.83,SW,229,4.0,24.0,100,0.00,,,0.00,0001,Weather View 32 v70,2013-04-08 08:45:00,
2013-04-08 01:50:00,48.6,48.6,29.83,West,274,11.0,24.0,100,0.00,,,0.00,0001,Weather View 32 v70,2013-04-08 08:50:00,
2013-04-08 01:55:00,48.6,48.6,29.82,SW,229,7.0,29.0,100,0.00,,,0.00,0001,Weather View 32 v70,2013-04-08 08:55:00,
2013-04-08 02:00:00,48.5,48.5,29.82,WNW,297,16.0,29.0,100,0.00,,,0.00,0001,Weather View 32 v70,2013-04-08 09:00:00,
2013-04-08 02:10:00,48.5,48.5,29.83,West,274,14.0,29.0,100,0.00,,,0.00,0001,Weather View 32 v70,2013-04-08 09:10:00,
2013-04-08 02:15:00,48.5,48.5,29.83,NNW,342,10.0,29.0,100,0.00,,,0.00,0001,Weather View 32 v70,2013-04-08 09:15:00,
2013-04-08 02:20:00,48.5,48.5,29.83,WNW,297,11.0,29.0,100,0.00,,,0.00,0001,Weather View 32 v70,2013-04-08 09:20:00,
2013-04-08 02:30:00,48.4,48.4,29.84,NNW,342,6.0,29.0,100,0.00,,,0.00,0001,Weather View 32 v70,2013-04-08 09:30:00,
2013-04-08 02:40:00,48.4,48.4,29.85,WSW,252,7.0,29.0,100,0.00,,,0.00,0002,Weather View 32 v70,2013-04-08 09:40:00,
2013-04-08 02:45:00,48.2,48.2,29.84,West,274,12.0,29.0,100,0.00,,,0.00,0002,Weather View 32 v70,2013-04-08 09:45:00,
2013-04-08 02:50:00,48.3,48.3,29.83,West,274,9.0,29.0,100,0.00,,,0.00,0002,Weather View 32 v70,2013-04-08 09:50:00,
2013-04-08 03:00:00,48.2,48.2,29.83,NNW,342,5.0,29.0,100,0.00,,,0.00,0001,Weather View 32 v70,2013-04-08 10:00:00,
2013-04-08 03:05:00,48.3,48.3,29.83,WSW,252,6.0,29.0,100,0.00,,,0.00,0002,Weather View 32 v70,2013-04-08 10:05:00,
2013-04-08 03:10:00,48.3,48.3,29.83,WNW,297,9.0,29.0,100,0.00,,,0.00,0002,Weather View 32 v70,2013-04-08 10:10:00,
2013-04-08 03:20:00,48.3,48.3,29.84,WSW,252,1.0,27.0,100,0.00,,,0.00,0001,Weather View 32 v70,2013-04-08 10:20:00,
2013-04-08 03:25:00,48.3,48.3,29.84,West,274,3.0,27.0,100,0.00,,,0.00,0001,Weather View 32 v70,2013-04-08 10:25:00,
2013-04-08 03:30:00,48.3,48.3,29.84,SW,229,8.0,27.0,100,0.00,,,0.00,0001,Weather View 32 v70,2013-04-08 10:30:00,
2013-04-08 03:35:00,48.3,48.3,29.84,WNW,297,6.0,23.0,100,0.00,,,0.00,0001,Weather View 32 v70,2013-04-08 10:35:00,
2013-04-08 03:45:00,48.3,48.3,29.85,NNW,342,9.0,23.0,100,0.00,,,0.00,0002,Weather View 32 v70,2013-04-08 10:45:00,
2013-04-08 03:50:00,48.3,48.3,29.85,West,274,5.0,25.0,100,0.00,,,0.00,0001,Weather View 32 v70,2013-04-08 10:50:00,
2013-04-08 03:55:00,48.4,48.4,29.86,SSW,207,4.0,25.0,100,0.00,,,0.00,0001,Weather View 32 v70,2013-04-08 10:55:00,
2013-04-08 04:00:00,48.3,48.3,29.86,WSW,252,4.0,25.0,100,0.00,,,0.00,0001,Weather View 32 v70,2013-04-08 11:00:00,
2013-04-08 04:10:00,48.1,48.1,29.87,WNW,297,5.0,25.0,100,0.00,,,0.00,0001,Weather View 32 v70,2013-04-08 11:10:00,
2013-04-08 04:15:00,48.0,48.0,29.87,NW,319,6.0,25.0,100,0.00,,,0.00,0001,Weather View 32 v70,2013-04-08 11:15:00,
2013-04-08 04:20:00,47.9,47.9,29.86,WNW,297,8.0,25.0,100,0.00,,,0.00,0001,Weather View 32 v70,2013-04-08 11:20:00,
2013-04-08 04:25:00,47.8,47.8,29.87,WNW,297,6.0,25.0,100,0.00,,,0.00,0001,Weather View 32 v70,2013-04-08 11:25:00,
2013-04-08 04:35:00,47.7,47.4,29.87,SSW,207,2.0,25.0,99,0.00,,,0.00,0001,Weather View 32 v70,2013-04-08 11:35:00,
2013-04-08 04:40:00,47.5,47.2,29.87,NW,319,7.0,25.0,99,0.00,,,0.00,0001,Weather View 32 v70,2013-04-08 11:40:00,
2013-04-08 04:50:00,47.4,47.1,29.86,NW,319,5.0,16.0,99,0.00,,,0.00,0002,Weather View 32 v70,2013-04-08 11:50:00,
2013-04-08 04:55:00,47.4,47.1,29.87,WNW,297,6.0,16.0,99,0.00,,,0.00,0002,Weather View 32 v70,2013-04-08 11:55:00,
2013-04-08 05:05:00,47.5,47.0,29.87,West,274,5.0,16.0,98,0.00,,,0.00,0001,Weather View 32 v70,2013-04-08 12:05:00,
2013-04-08 05:10:00,47.5,47.0,29.87,NNW,342,3.0,16.0,98,0.00,,,0.00,0002,Weather View 32 v70,2013-04-08 12:10:00,
2013-04-08 05:25:00,47.4,46.6,29.88,West,274,3.0,15.0,97,0.00,,,0.00,0002,Weather View 32 v70,2013-04-08 12:25:00,
2013-04-08 05:35:00,47.1,46.3,29.87,NNW,342,7.0,15.0,97,0.00,,,0.00,0002,Weather View 32 v70,2013-04-08 12:35:00,
2013-04-08 05:45:00,47.0,46.2,29.87,NW,319,4.0,15.0,97,0.00,,,0.00,0001,Weather View 32 v70,2013-04-08 12:45:00,
2013-04-08 05:50:00,46.8,46.0,29.88,WNW,297,6.0,15.0,97,0.00,,,0.00,0001,Weather View 32 v70,2013-04-08 12:50:00,
2013-04-08 06:00:00,46.7,45.9,29.88,WSW,252,12.0,15.0,97,0.00,,,0.00,0001,Weather View 32 v70,2013-04-08 13:00:00,
2013-04-08 06:05:00,46.9,45.8,29.88,West,274,8.0,15.0,96,0.00,,,0.00,0001,Weather View 32 v70,2013-04-08 13:05:00,
2013-04-08 06:10:00,46.7,45.6,29.88,NW,319,5.0,14.0,96,0.00,,,0.00,0001,Weather View 32 v70,2013-04-08 13:10:00,
2013-04-08 06:20:00,46.7,45.3,29.89,WNW,297,7.0,14.0,95,0.00,,,0.00,0002,Weather View 32 v70,2013-04-08 13:20:00,
2013-04-08 06:25:00,46.5,45.1,29.90,NW,319,6.0,14.0,95,0.00,,,0.00,0002,Weather View 32 v70,2013-04-08 13:25:00,
2013-04-08 06:30:00,46.5,45.1,29.90,West,274,6.0,14.0,95,0.00,,,0.00,0002,Weather View 32 v70,2013-04-08 13:30:00,
2013-04-08 06:40:00,46.3,44.9,29.90,WNW,297,3.0,14.0,95,0.00,,,0.00,0006,Weather View 32 v70,2013-04-08 13:40:00,
2013-04-08 06:45:00,46.1,44.7,29.91,West,274,2.0,14.0,95,0.00,,,0.00,0008,Weather View 32 v70,2013-04-08 13:45:00,
2013-04-08 06:50:00,46.1,44.7,29.91,NW,319,3.0,14.0,95,0.00,,,0.00,0010,Weather View 32 v70,2013-04-08 13:50:00,
2013-04-08 06:55:00,46.2,44.8,29.92,West,274,6.0,14.0,95,0.00,,,0.00,0015,Weather View 32 v70,2013-04-08 13:55:00,
2013-04-08 07:05:00,46.2,44.6,29.93,NW,319,3.0,14.0,94,0.00,,,0.00,0023,Weather View 32 v70,2013-04-08 14:05:00,
2013-04-08 07:10:00,46.3,44.7,29.93,WNW,297,4.0,14.0,94,0.00,,,0.00,0026,Weather View 32 v70,2013-04-08 14:10:00,
2013-04-08 07:15:00,46.4,44.8,29.93,SW,229,2.0,14.0,94,0.00,,,0.00,0041,Weather View 32 v70,2013-04-08 14:15:00,
2013-04-08 07:30:00,46.8,45.2,29.94,West,274,6.0,10.0,94,0.00,,,0.00,0154,Weather View 32 v70,2013-04-08 14:30:00,
2013-04-08 07:40:00,47.4,44.9,29.94,North,4,3.0,8.0,91,0.00,,,0.00,0185,Weather View 32 v70,2013-04-08 14:40:00,
2013-04-08 07:45:00,47.8,45.3,29.94,WNW,297,3.0,8.0,91,0.00,,,0.00,0200,Weather View 32 v70,2013-04-08 14:45:00,
2013-04-08 07:55:00,47.8,44.7,29.95,NW,319,4.0,12.0,89,0.00,,,0.00,0228,Weather View 32 v70,2013-04-08 14:55:00,
2013-04-08 08:00:00,48.1,45.0,29.95,North,4,3.0,12.0,89,0.00,,,0.00,0241,Weather View 32 v70,2013-04-08 15:00:00,
2013-04-08 08:05:00,48.7,45.6,29.95,SW,229,1.0,12.0,89,0.00,,,0.00,0256,Weather View 32 v70,2013-04-08 15:05:00,
2013-04-08 08:10:00,49.0,45.6,29.96,NW,319,2.0,12.0,88,0.00,,,0.00,0269,Weather View 32 v70,2013-04-08 15:10:00,
2013-04-08 08:20:00,48.6,44.9,29.96,NW,319,5.0,12.0,87,0.00,,,0.00,0297,Weather View 32 v70,2013-04-08 15:20:00,
2013-04-08 08:30:00,49.2,44.9,29.96,NW,319,5.0,12.0,85,0.00,,,0.00,0323,Weather View 32 v70,2013-04-08 15:30:00,
2013-04-08 08:40:00,49.5,44.9,29.96,NW,319,6.0,12.0,84,0.00,,,0.00,0349,Weather View 32 v70,2013-04-08 15:40:00,
2013-04-08 08:45:00,49.6,44.3,29.96,NW,319,8.0,12.0,82,0.00,,,0.00,0361,Weather View 32 v70,2013-04-08 15:45:00,
2013-04-08 08:50:00,50.0,44.4,29.95,NW,319,6.0,12.0,81,0.00,,,0.00,0374,Weather View 32 v70,2013-04-08 15:50:00,
2013-04-08 08:55:00,50.5,44.5,29.95,NNW,342,5.0,12.0,80,0.00,,,0.00,0387,Weather View 32 v70,2013-04-08 15:55:00,
2013-04-08 09:00:00,50.8,44.2,29.95,NW,319,6.0,13.0,78,0.00,,,0.00,0400,Weather View 32 v70,2013-04-08 16:00:00,
2013-04-08 09:05:00,50.8,43.5,29.96,NNW,342,7.0,13.0,76,0.00,,,0.00,0413,Weather View 32 v70,2013-04-08 16:05:00,
2013-04-08 09:14:00,51.3,44.3,29.96,NW,319,4.0,13.0,77,0.00,,,0.00,0425,Weather View 32 v70,2013-04-08 16:14:00,
2013-04-08 09:20:00,51.7,43.7,29.96,WNW,297,6.0,17.0,74,0.00,,,0.00,0450,Weather View 32 v70,2013-04-08 16:20:00,
2013-04-08 09:25:00,51.6,43.6,29.96,NNW,342,6.0,17.0,74,0.00,,,0.00,0462,Weather View 32 v70,2013-04-08 16:25:00,
2013-04-08 09:35:00,52.0,43.6,29.96,West,274,7.0,17.0,73,0.00,,,0.00,0487,Weather View 32 v70,2013-04-08 16:35:00,
2013-04-08 09:40:00,52.3,43.9,29.96,WNW,297,8.0,17.0,73,0.00,,,0.00,0500,Weather View 32 v70,2013-04-08 16:40:00,
2013-04-08 09:45:00,52.7,44.6,29.95,West,274,6.0,17.0,74,0.00,,,0.00,0511,Weather View 32 v70,2013-04-08 16:45:00,
2013-04-08 09:55:00,52.7,43.5,29.95,NW,319,8.0,17.0,71,0.00,,,0.00,0537,Weather View 32 v70,2013-04-08 16:55:00,
2013-04-08 10:05:00,53.1,43.9,29.96,NW,319,11.0,17.0,71,0.00,,,0.00,0560,Weather View 32 v70,2013-04-08 17:05:00,
2013-04-08 10:15:00,53.7,43.8,29.96,NW,319,7.0,17.0,69,0.00,,,0.00,0581,Weather View 32 v70,2013-04-08 17:15:00,
2013-04-08 10:25:00,54.2,43.8,29.96,WNW,297,7.0,17.0,68,0.00,,,0.00,0606,Weather View 32 v70,2013-04-08 17:25:00,
2013-04-08 10:30:00,55.2,44.4,29.96,West,274,4.0,17.0,67,0.00,,,0.00,0617,Weather View 32 v70,2013-04-08 17:30:00,
2013-04-08 10:40:00,54.7,41.1,29.96,NNW,342,8.0,19.0,60,0.00,,,0.00,0639,Weather View 32 v70,2013-04-08 17:40:00,
2013-04-08 10:45:00,55.2,41.1,29.96,NW,319,10.0,19.0,59,0.00,,,0.00,0652,Weather View 32 v70,2013-04-08 17:45:00,
2013-04-08 10:55:00,55.7,41.1,29.96,North,4,6.0,19.0,58,0.00,,,0.00,0671,Weather View 32 v70,2013-04-08 17:55:00,
2013-04-08 11:00:00,56.2,42.0,29.96,NNW,342,6.0,19.0,59,0.00,,,0.00,0680,Weather View 32 v70,2013-04-08 18:00:00,
2013-04-08 11:10:00,56.0,40.9,29.96,NNW,342,11.0,24.0,57,0.00,,,0.00,0701,Weather View 32 v70,2013-04-08 18:10:00,
2013-04-08 11:15:00,56.9,42.2,29.95,NW,319,11.0,24.0,58,0.00,,,0.00,0712,Weather View 32 v70,2013-04-08 18:15:00,
2013-04-08 11:25:00,57.2,41.6,29.95,NW,319,14.0,24.0,56,0.00,,,0.00,0721,Weather View 32 v70,2013-04-08 18:25:00,
2013-04-08 11:30:00,57.4,41.8,29.95,North,4,8.0,24.0,56,0.00,,,0.00,0730,Weather View 32 v70,2013-04-08 18:30:00,
2013-04-08 11:35:00,58.2,42.1,29.95,West,274,8.0,24.0,55,0.00,,,0.00,0739,Weather View 32 v70,2013-04-08 18:35:00,
2013-04-08 11:45:00,58.2,40.6,29.95,WNW,297,12.0,24.0,52,0.00,,,0.00,0747,Weather View 32 v70,2013-04-08 18:45:00,
2013-04-08 11:50:00,58.2,41.1,29.95,NW,319,8.0,24.0,53,0.00,,,0.00,0754,Weather View 32 v70,2013-04-08 18:50:00,
2013-04-08 11:55:00,59.4,41.7,29.95,WNW,297,12.0,24.0,52,0.00,,,0.00,0761,Weather View 32 v70,2013-04-08 18:55:00,
2013-04-08 12:00:00,58.4,40.8,29.95,NW,319,11.0,24.0,52,0.00,,,0.00,0763,Weather View 32 v70,2013-04-08 19:00:00,
2013-04-08 12:05:00,58.8,42.6,29.95,NW,319,9.0,24.0,55,0.00,,,0.00,0766,Weather View 32 v70,2013-04-08 19:05:00,
2013-04-08 12:16:00,60.1,39.2,29.95,NW,319,14.0,23.0,46,0.00,,,0.00,0777,Weather View 32 v70,2013-04-08 19:16:00,
2013-04-08 12:25:00,59.9,36.7,29.95,NW,319,14.0,24.0,42,0.00,,,0.00,0786,Weather View 32 v70,2013-04-08 19:25:00,
2013-04-08 12:30:00,60.6,37.3,29.95,NW,319,14.0,24.0,42,0.00,,,0.00,0791,Weather View 32 v70,2013-04-08 19:30:00,
2013-04-08 12:40:00,61.0,37.1,29.95,NW,319,11.0,24.0,41,0.00,,,0.00,0794,Weather View 32 v70,2013-04-08 19:40:00,
2013-04-08 12:45:00,60.7,36.8,29.95,NW,319,11.0,24.0,41,0.00,,,0.00,0794,Weather View 32 v70,2013-04-08 19:45:00,
2013-04-08 12:50:00,61.1,37.2,29.95,WNW,297,7.0,24.0,41,0.00,,,0.00,0794,Weather View 32 v70,2013-04-08 19:50:00,
2013-04-08 13:00:00,61.4,35.5,29.95,NW,319,16.0,25.0,38,0.00,,,0.00,0795,Weather View 32 v70,2013-04-08 20:00:00,
2013-04-08 13:10:00,61.6,36.3,29.95,NNW,342,9.0,25.0,39,0.00,,,0.00,0796,Weather View 32 v70,2013-04-08 20:10:00,
2013-04-08 13:15:00,61.4,36.2,29.95,NW,319,14.0,25.0,39,0.00,,,0.00,0793,Weather View 32 v70,2013-04-08 20:15:00,
2013-04-08 13:20:00,61.6,35.7,29.95,NW,319,11.0,25.0,38,0.00,,,0.00,0795,Weather View 32 v70,2013-04-08 20:20:00,
2013-04-08 13:30:00,61.4,34.8,29.95,NNW,342,18.0,27.0,37,0.00,,,0.00,0799,Weather View 32 v70,2013-04-08 20:30:00,
2013-04-08 13:35:00,61.8,35.9,29.95,NW,319,13.0,27.0,38,0.00,,,0.00,0797,Weather View 32 v70,2013-04-08 20:35:00,
2013-04-08 13:45:00,62.5,35.8,29.95,WNW,297,13.0,27.0,37,0.00,,,0.00,0795,Weather View 32 v70,2013-04-08 20:45:00,
2013-04-08 13:50:00,62.1,35.5,29.95,West,274,12.0,27.0,37,0.00,,,0.00,0788,Weather View 32 v70,2013-04-08 20:50:00,
2013-04-08 13:55:00,62.1,35.5,29.95,NNW,342,15.0,27.0,37,0.00,,,0.00,0790,Weather View 32 v70,2013-04-08 20:55:00,
2013-04-08 14:05:00,63.2,36.4,29.94,WNW,297,20.0,27.0,37,0.00,,,0.00,0782,Weather View 32 v70,2013-04-08 21:05:00,
2013-04-08 14:10:00,62.7,35.3,29.94,NW,319,11.0,27.0,36,0.00,,,0.00,0777,Weather View 32 v70,2013-04-08 21:10:00,
2013-04-08 14:15:00,63.7,37.6,29.94,North,4,6.0,27.0,38,0.00,,,0.00,0774,Weather View 32 v70,2013-04-08 21:15:00,
2013-04-08 14:25:00,63.9,37.1,29.94,WNW,297,6.0,27.0,37,0.00,,,0.00,0763,Weather View 32 v70,2013-04-08 21:25:00,
2013-04-08 14:30:00,63.5,36.0,29.94,NNW,342,14.0,27.0,36,0.00,,,0.00,0757,Weather View 32 v70,2013-04-08 21:30:00,
2013-04-08 14:35:00,63.8,36.3,29.93,NW,319,16.0,27.0,36,0.00,,,0.00,0756,Weather View 32 v70,2013-04-08 21:35:00,
2013-04-08 14:40:00,63.4,35.2,29.94,West,274,10.0,27.0,35,0.00,,,0.00,0751,Weather View 32 v70,2013-04-08 21:40:00,
2013-04-08 14:45:00,63.9,36.4,29.93,WNW,297,12.0,27.0,36,0.00,,,0.00,0741,Weather View 32 v70,2013-04-08 21:45:00,
2013-04-08 14:55:00,64.0,36.4,29.93,WNW,297,11.0,24.0,36,0.00,,,0.00,0731,Weather View 32 v70,2013-04-08 21:55:00,
2013-04-08 15:15:00,64.7,34.9,29.93,North,4,10.0,28.0,33,0.00,,,0.00,0702,Weather View 32 v70,2013-04-08 22:15:00,
2013-04-08 15:25:00,65.8,35.1,29.93,North,4,14.0,28.0,32,0.00,,,0.00,0690,Weather View 32 v70,2013-04-08 22:25:00,
2013-04-08 15:30:00,65.4,34.7,29.93,WNW,297,11.0,28.0,32,0.00,,,0.00,0681,Weather View 32 v70,2013-04-08 22:30:00,
2013-04-08 15:35:00,65.6,34.9,29.93,NW,319,12.0,28.0,32,0.00,,,0.00,0672,Weather View 32 v70,2013-04-08 22:35:00,
2013-04-08 15:45:00,65.7,35.7,29.93,NNW,342,9.0,28.0,33,0.00,,,0.00,0649,Weather View 32 v70,2013-04-08 22:45:00,
2013-04-08 15:50:00,66.5,37.2,29.93,NNW,342,12.0,28.0,34,0.00,,,0.00,0643,Weather View 32 v70,2013-04-08 22:50:00,
2013-04-08 15:55:00,66.2,36.9,29.93,North,4,7.0,28.0,34,0.00,,,0.00,0630,Weather View 32 v70,2013-04-08 22:55:00,
2013-04-08 16:00:00,66.2,36.9,29.92,North,4,5.0,28.0,34,0.00,,,0.00,0620,Weather View 32 v70,2013-04-08 23:00:00,
2013-04-08 16:10:00,66.6,35.7,29.93,North,4,4.0,27.0,32,0.00,,,0.00,0597,Weather View 32 v70,2013-04-08 23:10:00,
2013-04-08 16:19:00,66.3,35.5,29.93,NW,319,9.0,27.0,32,0.00,,,0.00,0583,Weather View 32 v70,2013-04-08 23:19:00,
2013-04-08 16:25:00,66.2,34.6,29.93,WNW,297,17.0,27.0,31,0.00,,,0.00,0558,Weather View 32 v70,2013-04-08 23:25:00,
2013-04-08 16:30:00,66.3,34.7,29.93,NW,319,15.0,27.0,31,0.00,,,0.00,0549,Weather View 32 v70,2013-04-08 23:30:00,
2013-04-08 16:40:00,66.7,35.8,29.93,NW,319,17.0,27.0,32,0.00,,,0.00,0521,Weather View 32 v70,2013-04-08 23:40:00,
2013-04-08 16:50:00,65.8,34.3,29.93,NW,319,6.0,27.0,31,0.00,,,0.00,0498,Weather View 32 v70,2013-04-08 23:50:00,
2013-04-08 16:55:00,66.3,34.7,29.93,WNW,297,10.0,27.0,31,0.00,,,0.00,0484,Weather View 32 v70,2013-04-08 23:55:00,
2013-04-08 17:00:00,66.4,34.8,29.93,NNW,342,10.0,27.0,31,0.00,,,0.00,0471,Weather View 32 v70,2013-04-09 00:00:00,
2013-04-08 17:10:00,66.4,35.6,29.93,NNW,342,10.0,23.0,32,0.00,,,0.00,0446,Weather View 32 v70,2013-04-09 00:10:00,
2013-04-08 17:15:00,66.2,34.6,29.93,WNW,297,10.0,23.0,31,0.00,,,0.00,0435,Weather View 32 v70,2013-04-09 00:15:00,
2013-04-08 17:20:00,66.1,34.5,29.93,WNW,297,17.0,23.0,31,0.00,,,0.00,0423,Weather View 32 v70,2013-04-09 00:20:00,
2013-04-08 17:30:00,66.5,35.7,29.93,NW,319,9.0,23.0,32,0.00,,,0.00,0393,Weather View 32 v70,2013-04-09 00:30:00,
2013-04-08 17:40:00,66.6,35.7,29.93,North,4,9.0,23.0,32,0.00,,,0.00,0368,Weather View 32 v70,2013-04-09 00:40:00,
2013-04-08 17:45:00,66.5,34.9,29.93,NE,49,6.0,23.0,31,0.00,,,0.00,0356,Weather View 32 v70,2013-04-09 00:45:00,
2013-04-08 17:50:00,66.5,34.0,29.93,NNW,342,9.0,23.0,30,0.00,,,0.00,0343,Weather View 32 v70,2013-04-09 00:50:00,
2013-04-08 17:55:00,66.4,34.0,29.93,NNE,27,8.0,23.0,30,0.00,,,0.00,0331,Weather View 32 v70,2013-04-09 00:55:00,
2013-04-08 18:00:00,66.1,33.7,29.93,NW,319,14.0,21.0,30,0.00,,,0.00,0317,Weather View 32 v70,2013-04-09 01:00:00,
2013-04-08 18:10:00,66.0,34.4,29.93,NW,319,10.0,20.0,31,0.00,,,0.00,0288,Weather View 32 v70,2013-04-09 01:10:00,
2013-04-08 18:20:00,66.0,33.6,29.93,WNW,297,11.0,20.0,30,0.00,,,0.00,0261,Weather View 32 v70,2013-04-09 01:20:00,
2013-04-08 18:30:00,65.8,33.4,29.93,West,274,11.0,20.0,30,0.00,,,0.00,0226,Weather View 32 v70,2013-04-09 01:30:00,
2013-04-08 18:40:00,66.0,31.9,29.94,NW,319,6.0,19.0,28,0.00,,,0.00,0029,Weather View 32 v70,2013-04-09 01:40:00,
2013-04-08 18:45:00,65.3,33.8,29.94,WNW,297,4.0,19.0,31,0.00,,,0.00,0028,Weather View 32 v70,2013-04-09 01:45:00,
2013-04-08 18:55:00,63.2,42.0,29.95,NW,319,5.0,19.0,46,0.00,,,0.00,0025,Weather View 32 v70,2013-04-09 01:55:00,
2013-04-08 19:00:00,62.6,44.2,29.95,West,274,3.0,19.0,51,0.00,,,0.00,0023,Weather View 32 v70,2013-04-09 02:00:00,
2013-04-08 19:05:00,62.0,45.1,29.95,West,274,3.0,19.0,54,0.00,,,0.00,0022,Weather View 32 v70,2013-04-09 02:05:00,
2013-04-08 19:10:00,61.8,45.4,29.95,West,274,3.0,19.0,55,0.00,,,0.00,0020,Weather View 32 v70,2013-04-09 02:10:00,
2013-04-08 19:20:00,61.3,45.9,29.95,WSW,252,4.0,14.0,57,0.00,,,0.00,0015,Weather View 32 v70,2013-04-09 02:20:00,
2013-04-08 19:30:00,60.9,45.5,29.96,SW,229,6.0,14.0,57,0.00,,,0.00,0009,Weather View 32 v70,2013-04-09 02:30:00,
2013-04-08 19:40:00,60.3,46.3,29.96,West,274,3.0,14.0,60,0.00,,,0.00,0005,Weather View 32 v70,2013-04-09 02:40:00,
2013-04-08 19:45:00,59.9,46.4,29.96,WNW,297,3.0,14.0,61,0.00,,,0.00,0003,Weather View 32 v70,2013-04-09 02:45:00,
2013-04-08 19:55:00,59.2,47.0,29.96,SW,229,5.0,14.0,64,0.00,,,0.00,0002,Weather View 32 v70,2013-04-09 02:55:00,
2013-04-08 20:00:00,59.1,46.9,29.97,WSW,252,4.0,14.0,64,0.00,,,0.00,0002,Weather View 32 v70,2013-04-09 03:00:00,
2013-04-08 20:05:00,59.0,47.2,29.97,West,274,3.0,14.0,65,0.00,,,0.00,0002,Weather View 32 v70,2013-04-09 03:05:00,
2013-04-08 20:15:00,59.1,46.9,29.97,NW,319,6.0,14.0,64,0.00,,,0.00,0001,Weather View 32 v70,2013-04-09 03:15:00,
2013-04-08 20:20:00,59.2,46.6,29.98,NW,319,7.0,14.0,63,0.00,,,0.00,0001,Weather View 32 v70,2013-04-09 03:20:00,
2013-04-08 20:30:00,59.1,46.5,29.98,NW,319,3.0,12.0,63,0.00,,,0.00,0001,Weather View 32 v70,2013-04-09 03:30:00,
2013-04-08 20:35:00,58.7,46.5,29.98,WNW,297,3.0,12.0,64,0.00,,,0.00,0002,Weather View 32 v70,2013-04-09 03:35:00,
2013-04-08 20:40:00,58.6,46.8,29.99,WNW,297,6.0,12.0,65,0.00,,,0.00,0001,Weather View 32 v70,2013-04-09 03:40:00,
2013-04-08 20:45:00,58.4,47.1,29.99,WSW,252,2.0,12.0,66,0.00,,,0.00,0001,Weather View 32 v70,2013-04-09 03:45:00,
2013-04-08 20:50:00,58.1,46.8,29.99,West,274,2.0,12.0,66,0.00,,,0.00,0001,Weather View 32 v70,2013-04-09 03:50:00,
2013-04-08 21:00:00,58.0,47.1,29.99,SSE,162,1.0,12.0,67,0.00,,,0.00,0001,Weather View 32 v70,2013-04-09 04:00:00,
2013-04-08 21:05:00,57.8,46.9,29.99,WNW,297,4.0,12.0,67,0.00,,,0.00,0001,Weather View 32 v70,2013-04-09 04:05:00,
2013-04-08 21:10:00,57.9,47.0,29.99,West,274,5.0,12.0,67,0.00,,,0.00,0001,Weather View 32 v70,2013-04-09 04:10:00,
2013-04-08 21:15:00,57.8,46.9,30.00,WNW,297,7.0,11.0,67,0.00,,,0.00,0001,Weather View 32 v70,2013-04-09 04:15:00,
2013-04-08 21:20:00,57.8,46.9,30.00,West,274,4.0,12.0,67,0.00,,,0.00,0002,Weather View 32 v70,2013-04-09 04:20:00,
2013-04-08 21:30:00,57.6,46.7,30.00,West,274,4.0,12.0,67,0.00,,,0.00,0001,Weather View 32 v70,2013-04-09 04:30:00,
2013-04-08 21:40:00,57.5,46.6,30.00,NW,319,2.0,12.0,67,0.00,,,0.00,0001,Weather View 32 v70,2013-04-09 04:40:00,
2013-04-08 21:50:00,57.4,46.5,30.01,West,274,3.0,12.0,67,0.00,,,0.00,0002,Weather View 32 v70,2013-04-09 04:50:00,
2013-04-08 22:00:00,57.0,46.1,30.01,NNE,27,1.0,12.0,67,0.00,,,0.00,0002,Weather View 32 v70,2013-04-09 05:00:00,
2013-04-08 22:05:00,56.4,46.3,30.01,ESE,117,2.0,12.0,69,0.00,,,0.00,0001,Weather View 32 v70,2013-04-09 05:05:00,
2013-04-08 22:10:00,55.6,46.7,30.01,SE,139,1.0,12.0,72,0.00,,,0.00,0001,Weather View 32 v70,2013-04-09 05:10:00,
2013-04-08 22:15:00,55.0,47.2,30.01,SE,139,0.0,12.0,75,0.00,,,0.00,0002,Weather View 32 v70,2013-04-09 05:15:00,
2013-04-08 22:20:00,54.3,47.2,30.02,SSE,162,0.0,11.0,77,0.00,,,0.00,0001,Weather View 32 v70,2013-04-09 05:20:00,
2013-04-08 22:25:00,53.7,47.0,30.02,ESE,117,1.0,10.0,78,0.00,,,0.00,0002,Weather View 32 v70,2013-04-09 05:25:00,
2013-04-08 22:35:00,52.9,47.5,30.02,SSE,162,1.0,10.0,82,0.00,,,0.00,0001,Weather View 32 v70,2013-04-09 05:35:00,
2013-04-08 22:40:00,52.5,47.8,30.02,SE,139,1.0,10.0,84,0.00,,,0.00,0001,Weather View 32 v70,2013-04-09 05:40:00,
2013-04-08 22:45:00,51.9,48.1,30.02,ESE,117,3.0,7.0,87,0.00,,,0.00,0002,Weather View 32 v70,2013-04-09 05:45:00,
2013-04-08 22:50:00,51.4,48.3,30.02,ESE,117,1.0,6.0,89,0.00,,,0.00,0001,Weather View 32 v70,2013-04-09 05:50:00,
2013-04-08 22:55:00,50.7,47.9,30.02,East,94,2.0,6.0,90,0.00,,,0.00,0001,Weather View 32 v70,2013-04-09 05:55:00,
2013-04-08 23:05:00,50.1,48.2,30.02,ESE,117,0.0,6.0,93,0.00,,,0.00,0002,Weather View 32 v70,2013-04-09 06:05:00,
2013-04-08 23:10:00,50.0,48.1,30.02,SE,139,4.0,6.0,93,0.00,,,0.00,0002,Weather View 32 v70,2013-04-09 06:10:00,
2013-04-08 23:15:00,49.9,48.2,30.02,SE,139,0.0,6.0,94,0.00,,,0.00,0001,Weather View 32 v70,2013-04-09 06:15:00,
2013-04-08 23:20:00,49.7,48.3,30.02,SSW,207,0.0,6.0,95,0.00,,,0.00,0001,Weather View 32 v70,2013-04-09 06:20:00,
2013-04-08 23:25:00,49.5,48.1,30.02,SSE,162,0.0,6.0,95,0.00,,,0.00,0001,Weather View 32 v70,2013-04-09 06:25:00,
2013-04-08 23:30:00,49.2,48.1,30.03,ESE,117,3.0,6.0,96,0.00,,,0.00,0001,Weather View 32 v70,2013-04-09 06:30:00,
2013-04-08 23:35:00,48.9,48.1,30.03,SSE,162,0.0,6.0,97,0.00,,,0.00,0001,Weather View 32 v70,2013-04-09 06:35:00,
2013-04-08 23:45:00,48.7,48.4,30.03,SSW,207,1.0,4.0,99,0.00,,,0.00,0001,Weather View 32 v70,2013-04-09 06:45:00,
2013-04-08 23:50:00,48.7,48.7,30.03,SE,139,0.0,4.0,100,0.00,,,0.00,0001,Weather View 32 v70,2013-04-09 06:50:00,
2013-04-08 23:55:00,49.2,48.9,30.03,WSW,252,0.0,4.0,99,0.00,,,0.00,0001,Weather View 32 v70,2013-04-09 06:55:00,